Time;durP1;ratioP1;P1;durP2;ratioP2;P2;SDS_P1;SDS_P2;PMS_P1;PMS_P2;Temp;Humidity;BMP_temperature;BMP_pressure;BME280_temperature;BME280_humidity;BME280_pressure;Samples;Min_cycle;Max_cycle;Signal;HPM_P1;HPM_P2
2023/02/03 00:01:33;;;;;;;9.90;6.95;;;4.80;99.90;;;;;;5026159;28;20041;-74
2023/02/03 00:03:59;;;;;;;11.73;7.18;;;4.80;99.90;;;;;;5007340;28;20126;-74
2023/02/03 00:06:24;;;;;;;9.88;5.53;;;4.80;99.90;;;;;;5026012;28;20466;-74
2023/02/03 00:08:53;;;;;;;8.15;5.82;;;4.80;99.90;;;;;;4992528;28;20057;-74
2023/02/03 00:11:18;;;;;;;11.48;7.30;;;4.90;99.90;;;;;;4991170;28;20420;-74
2023/02/03 00:13:44;;;;;;;10.73;7.50;;;4.90;99.90;;;;;;5023786;28;20057;-74
2023/02/03 00:16:10;;;;;;;10.15;6.47;;;4.90;99.90;;;;;;5017301;28;20103;-74
2023/02/03 00:18:36;;;;;;;10.38;7.22;;;4.90;99.90;;;;;;5022847;28;20045;-74
2023/02/03 00:21:01;;;;;;;9.40;6.65;;;4.90;99.90;;;;;;5005072;28;20113;-73
2023/02/03 00:23:30;;;;;;;10.00;7.03;;;5.00;99.90;;;;;;5022448;28;20037;-76
2023/02/03 00:25:57;;;;;;;14.60;9.02;;;5.00;99.90;;;;;;5014065;28;20118;-75
2023/02/03 00:28:27;;;;;;;10.98;7.47;;;5.00;99.90;;;;;;5007602;28;20041;-75
2023/02/03 00:30:52;;;;;;;13.40;8.70;;;5.00;99.90;;;;;;5012349;28;20070;-75
2023/02/03 00:33:18;;;;;;;12.82;7.90;;;5.10;99.90;;;;;;5017319;28;20081;-74
2023/02/03 00:35:44;;;;;;;13.15;9.00;;;5.10;99.90;;;;;;5030059;28;20048;-74
2023/02/03 00:38:10;;;;;;;13.50;8.93;;;5.20;99.90;;;;;;5018118;28;20034;-74
2023/02/03 00:40:37;;;;;;;14.18;9.57;;;5.30;99.90;;;;;;5012923;28;20037;-73
2023/02/03 00:43:04;;;;;;;14.13;9.70;;;5.40;99.90;;;;;;5012148;28;20045;-74
2023/02/03 00:45:30;;;;;;;14.05;9.57;;;5.50;99.90;;;;;;5033995;28;20037;-74
2023/02/03 00:47:55;;;;;;;14.77;9.90;;;5.50;99.90;;;;;;5028652;28;20071;-74
2023/02/03 00:50:21;;;;;;;16.63;11.18;;;5.60;99.90;;;;;;5031089;28;20470;-74
2023/02/03 00:52:47;;;;;;;15.40;10.30;;;5.60;99.90;;;;;;5012395;28;20049;-74
2023/02/03 00:55:13;;;;;;;15.52;10.77;;;5.60;99.90;;;;;;5010334;28;20045;-75
2023/02/03 00:57:39;;;;;;;16.52;11.32;;;5.70;99.90;;;;;;5016320;28;20059;-75
2023/02/03 01:00:07;;;;;;;19.05;11.18;;;5.70;99.90;;;;;;5032391;28;20188;-75
2023/02/03 01:02:47;;;;;;;17.08;11.10;;;5.70;99.90;;;;;;5017910;28;20049;-75
2023/02/03 01:05:15;;;;;;;20.35;12.95;;;5.80;99.90;;;;;;5003497;28;20050;-75
2023/02/03 01:07:41;;;;;;;18.30;11.65;;;5.80;99.90;;;;;;5048984;28;20045;-74
2023/02/03 01:10:07;;;;;;;18.83;12.07;;;5.80;99.90;;;;;;5050302;28;20107;-75
2023/02/03 01:12:33;;;;;;;21.00;12.80;;;5.80;99.90;;;;;;5032638;28;20064;-75
2023/02/03 01:14:59;;;;;;;22.52;13.55;;;5.80;99.90;;;;;;5014552;28;20057;-75
2023/02/03 01:17:24;;;;;;;24.15;15.45;;;5.90;99.90;;;;;;5026521;28;20049;-74
2023/02/03 01:19:52;;;;;;;23.77;14.32;;;5.90;99.90;;;;;;5010125;28;20049;-75
2023/02/03 01:22:18;;;;;;;25.08;15.18;;;5.90;99.90;;;;;;5025583;28;20097;-75
2023/02/03 01:24:43;;;;;;;24.33;15.45;;;5.90;99.90;;;;;;5019722;28;20762;-75
2023/02/03 01:27:10;;;;;;;24.10;14.63;;;6.00;99.90;;;;;;5032928;28;20052;-74
2023/02/03 01:29:37;;;;;;;28.65;16.00;;;6.00;99.90;;;;;;5016523;28;20049;-74
2023/02/03 01:32:03;;;;;;;27.55;16.52;;;6.00;99.90;;;;;;5013469;28;20115;-75
2023/02/03 01:34:32;;;;;;;28.40;17.13;;;6.10;99.90;;;;;;5000082;28;20053;-74
2023/02/03 01:36:58;;;;;;;28.42;17.52;;;6.10;99.90;;;;;;5020085;28;20057;-76
2023/02/03 01:39:25;;;;;;;28.98;17.30;;;6.20;99.90;;;;;;5000204;28;20720;-75
2023/02/03 01:41:50;;;;;;;32.08;18.85;;;6.20;99.90;;;;;;5025468;28;20042;-74
2023/02/03 01:44:35;;;;;;;29.95;19.02;;;6.20;99.90;;;;;;5010062;28;20057;-76
2023/02/03 01:47:00;;;;;;;32.05;19.33;;;6.30;99.90;;;;;;5022083;28;20129;-76
2023/02/03 01:49:32;;;;;;;30.73;17.83;;;6.30;99.90;;;;;;5014002;28;20211;-74
2023/02/03 01:51:58;;;;;;;31.40;19.88;;;6.40;99.90;;;;;;5019695;28;20049;-75
2023/02/03 01:54:31;;;;;;;34.22;19.70;;;6.40;99.90;;;;;;5028539;28;20859;-75
2023/02/03 01:57:02;;;;;;;36.22;21.83;;;6.50;99.90;;;;;;5024646;28;20052;-76
2023/02/03 01:59:28;;;;;;;35.42;22.70;;;6.60;99.90;;;;;;5006186;28;20127;-76
2023/02/03 02:01:54;;;;;;;37.38;23.55;;;6.70;99.90;;;;;;4997031;28;20041;-75
2023/02/03 02:04:20;;;;;;;44.63;27.88;;;6.80;99.90;;;;;;5038146;28;20046;-75
2023/02/03 02:06:47;;;;;;;42.25;25.27;;;6.90;99.90;;;;;;5015390;28;20053;-75
2023/02/03 02:09:13;;;;;;;48.70;26.30;;;6.90;99.90;;;;;;5015377;28;20037;-75
2023/02/03 02:11:39;;;;;;;42.55;23.38;;;7.00;99.90;;;;;;5012293;28;20141;-75
2023/02/03 02:14:05;;;;;;;37.60;24.98;;;7.00;99.90;;;;;;5030446;28;20128;-76
2023/02/03 02:16:44;;;;;;;41.20;24.33;;;7.10;99.90;;;;;;5027159;28;20061;-76
2023/02/03 02:19:25;;;;;;;36.95;23.02;;;7.10;99.90;;;;;;5009147;28;20052;-75
2023/02/03 02:22:03;;;;;;;36.88;23.60;;;7.10;99.90;;;;;;5004590;28;20100;-75
2023/02/03 02:24:51;;;;;;;39.65;23.88;;;7.20;99.90;;;;;;5031591;28;20049;-77
2023/02/03 02:27:38;;;;;;;31.60;21.55;;;7.20;99.90;;;;;;5016058;28;20072;-76
2023/02/03 02:30:38;;;;;;;40.67;24.67;;;7.30;99.90;;;;;;5040032;28;20042;-74
2023/02/03 02:33:27;;;;;;;41.65;22.27;;;7.30;99.90;;;;;;5025224;28;20049;-74
2023/02/03 02:36:07;;;;;;;34.85;22.02;;;7.30;99.90;;;;;;5047835;28;20488;-75
2023/02/03 02:39:01;;;;;;;34.45;21.65;;;7.30;99.90;;;;;;5055924;28;20053;-75
2023/02/03 02:41:47;;;;;;;38.90;22.83;;;7.30;99.90;;;;;;5029497;28;20041;-74
2023/02/03 02:44:21;;;;;;;36.13;20.70;;;7.30;99.90;;;;;;5022457;28;20413;-75
2023/02/03 02:46:56;;;;;;;32.80;19.70;;;7.30;99.90;;;;;;5014253;28;20107;-76
2023/02/03 02:49:27;;;;;;;29.40;19.73;;;7.30;99.90;;;;;;5023822;28;20048;-75
2023/02/03 02:51:52;;;;;;;30.35;18.48;;;7.40;99.90;;;;;;5035094;28;20414;-75
2023/02/03 02:54:20;;;;;;;29.00;18.10;;;7.40;99.90;;;;;;5006928;28;20045;-75
2023/02/03 02:56:48;;;;;;;31.83;20.50;;;7.40;99.90;;;;;;5044440;28;20033;-77
2023/02/03 02:59:14;;;;;;;27.83;17.17;;;7.40;99.90;;;;;;4998772;28;20041;-76
2023/02/03 03:01:40;;;;;;;33.33;17.92;;;7.40;99.90;;;;;;4998873;28;20098;-76
2023/02/03 03:04:06;;;;;;;26.45;18.35;;;7.40;99.90;;;;;;5016601;28;20045;-76
2023/02/03 03:06:36;;;;;;;27.30;17.77;;;7.40;99.90;;;;;;4982302;28;20141;-75
2023/02/03 03:09:10;;;;;;;25.80;17.42;;;7.50;99.90;;;;;;5030235;28;20049;-75
2023/02/03 03:11:40;;;;;;;21.58;14.38;;;7.40;99.90;;;;;;5044783;28;20080;-75
2023/02/03 03:14:05;;;;;;;21.35;14.48;;;7.50;99.90;;;;;;5011510;28;20092;-76
2023/02/03 03:16:32;;;;;;;23.17;14.40;;;7.50;99.90;;;;;;5024167;28;20042;-76
2023/02/03 03:19:04;;;;;;;20.90;13.60;;;7.50;99.90;;;;;;4999202;28;20041;-76
2023/02/03 03:21:42;;;;;;;20.90;13.50;;;7.60;99.90;;;;;;5001281;28;20458;-77
2023/02/03 03:24:13;;;;;;;17.98;12.00;;;7.70;99.90;;;;;;5034679;28;20050;-75
2023/02/03 03:27:13;;;;;;;19.15;12.75;;;7.70;99.90;;;;;;5003325;28;20053;-74
2023/02/03 03:29:46;;;;;;;17.77;11.80;;;7.70;99.90;;;;;;5023509;28;20072;-76
2023/02/03 03:32:12;;;;;;;19.15;12.15;;;7.80;99.90;;;;;;5031828;28;20068;-77
2023/02/03 03:34:38;;;;;;;18.30;11.50;;;7.80;99.90;;;;;;5008490;28;20469;-76
2023/02/03 03:37:27;;;;;;;21.85;12.35;;;7.80;99.90;;;;;;5036049;28;20543;-75
2023/02/03 03:39:53;;;;;;;20.08;11.20;;;7.80;99.90;;;;;;5025952;28;20045;-75
2023/02/03 03:42:33;;;;;;;17.00;11.25;;;7.90;99.90;;;;;;5033830;28;20414;-75
2023/02/03 03:45:00;;;;;;;16.23;10.48;;;7.90;99.90;;;;;;5031926;28;20045;-76
2023/02/03 03:47:51;;;;;;;23.42;12.23;;;7.90;99.90;;;;;;5027825;28;20080;-76
2023/02/03 03:50:21;;;;;;;14.80;9.52;;;7.90;99.90;;;;;;5002307;28;20124;-75
2023/02/03 03:52:47;;;;;;;15.73;10.93;;;7.90;99.90;;;;;;5013303;28;20196;-76
2023/02/03 03:55:13;;;;;;;20.17;9.52;;;7.90;99.90;;;;;;5028666;28;20514;-76
2023/02/03 03:57:58;;;;;;;13.13;9.55;;;7.90;99.90;;;;;;5003398;28;20092;-77
2023/02/03 04:00:24;;;;;;;15.63;9.65;;;7.90;99.90;;;;;;5005365;28;20049;-75
2023/02/03 04:02:52;;;;;;;18.67;10.10;;;7.90;99.90;;;;;;5018081;28;20338;-75
2023/02/03 04:05:18;;;;;;;15.80;9.85;;;7.90;99.90;;;;;;5028541;28;20105;-76
2023/02/03 04:07:45;;;;;;;16.88;9.77;;;7.90;99.90;;;;;;5015354;28;20092;-75
2023/02/03 04:10:23;;;;;;;15.90;9.70;;;7.90;99.90;;;;;;5027287;28;20092;-75
2023/02/03 04:12:49;;;;;;;13.32;8.15;;;7.90;99.90;;;;;;5028809;28;20067;-76
2023/02/03 04:15:14;;;;;;;14.57;9.30;;;8.00;99.90;;;;;;5031335;28;20132;-74
2023/02/03 04:17:40;;;;;;;15.82;9.25;;;7.90;99.90;;;;;;5014613;28;20046;-77
2023/02/03 04:20:06;;;;;;;16.15;9.10;;;7.90;99.90;;;;;;4995653;28;20045;-77
2023/02/03 04:22:32;;;;;;;17.55;8.38;;;7.90;99.90;;;;;;5008318;28;20132;-76
2023/02/03 04:24:58;;;;;;;17.15;9.15;;;7.80;99.90;;;;;;5041530;28;20133;-76
2023/02/03 04:27:25;;;;;;;15.45;8.15;;;7.90;99.90;;;;;;5017481;28;20041;-76
2023/02/03 04:29:51;;;;;;;12.88;8.55;;;7.90;99.90;;;;;;5011566;28;20077;-77
2023/02/03 04:32:17;;;;;;;15.55;8.45;;;7.90;99.90;;;;;;5042337;28;20042;-77
2023/02/03 04:34:43;;;;;;;15.70;8.35;;;8.00;99.90;;;;;;5035350;28;20053;-76
2023/02/03 04:37:08;;;;;;;14.02;7.55;;;8.00;99.90;;;;;;5015923;28;20136;-75
2023/02/03 04:39:34;;;;;;;15.88;7.47;;;8.00;99.90;;;;;;5034409;28;20041;-76
2023/02/03 04:42:00;;;;;;;13.10;8.55;;;8.00;99.90;;;;;;5006339;28;20064;-76
2023/02/03 04:44:27;;;;;;;14.15;7.65;;;8.00;99.90;;;;;;5029207;28;20370;-75
2023/02/03 04:46:53;;;;;;;13.95;7.10;;;8.10;99.90;;;;;;5015877;28;20135;-76
2023/02/03 04:49:18;;;;;;;13.93;6.70;;;8.10;99.90;;;;;;5031185;28;20079;-77
2023/02/03 04:51:44;;;;;;;12.50;6.93;;;8.10;99.90;;;;;;5015064;28;20056;-77
2023/02/03 04:54:10;;;;;;;15.55;7.90;;;8.10;99.90;;;;;;5030969;28;20042;-77
2023/02/03 04:56:36;;;;;;;13.13;8.02;;;8.10;99.90;;;;;;4987574;28;20046;-75
2023/02/03 04:59:02;;;;;;;15.70;7.28;;;8.10;99.90;;;;;;5048318;28;20046;-77
2023/02/03 05:01:28;;;;;;;13.65;7.15;;;8.10;99.90;;;;;;4997245;28;20048;-78
2023/02/03 05:03:54;;;;;;;12.13;7.35;;;8.10;99.90;;;;;;5041205;28;20045;-78
2023/02/03 05:06:24;;;;;;;13.25;7.97;;;8.10;99.90;;;;;;5008620;28;20038;-76
2023/02/03 05:08:53;;;;;;;12.13;7.68;;;8.10;99.90;;;;;;5021608;28;20042;-75
2023/02/03 05:11:20;;;;;;;16.80;7.57;;;8.10;99.90;;;;;;5039783;28;20113;-75
2023/02/03 05:13:45;;;;;;;16.40;7.38;;;8.10;99.90;;;;;;5014529;28;20581;-77
2023/02/03 05:16:11;;;;;;;14.85;8.60;;;8.10;99.90;;;;;;5011327;28;20141;-77
2023/02/03 05:18:37;;;;;;;15.50;7.18;;;8.10;99.90;;;;;;5041403;28;20049;-77
2023/02/03 05:21:03;;;;;;;17.27;8.07;;;8.20;99.90;;;;;;4996105;28;20060;-78
2023/02/03 05:23:29;;;;;;;18.17;7.95;;;8.20;99.90;;;;;;4995916;28;20505;-76
2023/02/03 05:25:55;;;;;;;13.85;7.32;;;8.20;99.90;;;;;;5020363;28;20077;-77
2023/02/03 05:28:21;;;;;;;11.23;6.95;;;8.20;99.90;;;;;;5030530;28;20041;-77
2023/02/03 05:30:47;;;;;;;15.77;7.72;;;8.20;99.90;;;;;;5020813;28;20143;-76
2023/02/03 05:33:13;;;;;;;17.15;7.70;;;8.20;99.90;;;;;;5013185;28;20743;-74
2023/02/03 05:35:39;;;;;;;13.52;7.65;;;8.20;99.90;;;;;;5054514;28;20073;-75
2023/02/03 05:38:04;;;;;;;10.65;6.63;;;8.20;99.90;;;;;;5047548;28;20111;-76
2023/02/03 05:43:14;;;;;;;12.43;7.38;;;8.30;99.90;;;;;;5040921;28;20214;-75
2023/02/03 05:45:40;;;;;;;14.90;7.15;;;8.30;99.90;;;;;;5018174;28;20513;-77
2023/02/03 05:48:06;;;;;;;16.75;7.10;;;8.30;99.90;;;;;;5034315;28;20135;-76
2023/02/03 05:50:32;;;;;;;15.07;7.55;;;8.30;99.90;;;;;;5011144;28;20054;-77
2023/02/03 05:53:02;;;;;;;14.15;6.93;;;8.30;99.90;;;;;;5031958;28;20087;-75
2023/02/03 05:55:28;;;;;;;11.05;5.85;;;8.30;99.90;;;;;;5006077;28;20480;-76
2023/02/03 05:57:54;;;;;;;16.08;6.70;;;8.30;99.90;;;;;;5031616;28;20073;-78
2023/02/03 06:00:20;;;;;;;14.73;7.00;;;8.30;99.90;;;;;;4979389;28;20095;-76
2023/02/03 06:02:56;;;;;;;15.52;7.57;;;8.30;99.90;;;;;;5033970;28;20115;-76
2023/02/03 06:05:22;;;;;;;17.63;7.13;;;8.30;99.90;;;;;;5001155;28;20107;-74
2023/02/03 06:07:48;;;;;;;11.93;6.80;;;8.30;99.90;;;;;;5014675;28;20049;-77
2023/02/03 06:10:15;;;;;;;14.52;6.55;;;8.40;99.90;;;;;;5016929;28;20120;-75
2023/02/03 06:12:41;;;;;;;14.05;6.70;;;8.30;99.90;;;;;;5021970;28;20592;-77
2023/02/03 06:15:08;;;;;;;17.50;7.32;;;8.40;99.90;;;;;;5021402;28;20064;-76
2023/02/03 06:17:34;;;;;;;15.13;6.45;;;8.40;99.90;;;;;;5011648;28;20045;-76
2023/02/03 06:20:05;;;;;;;14.40;6.72;;;8.20;99.90;;;;;;5011731;28;20042;-75
2023/02/03 06:22:30;;;;;;;14.77;6.47;;;8.30;99.90;;;;;;5011269;28;20106;-76
2023/02/03 06:24:56;;;;;;;11.15;6.38;;;8.30;99.90;;;;;;5017542;28;20053;-75
2023/02/03 06:27:22;;;;;;;13.95;5.82;;;8.30;99.90;;;;;;5004807;28;20132;-77
2023/02/03 06:29:47;;;;;;;17.95;5.60;;;8.40;99.90;;;;;;5048559;28;20059;-75
2023/02/03 06:32:13;;;;;;;15.90;6.38;;;8.40;99.90;;;;;;5010944;28;20121;-76
2023/02/03 06:34:39;;;;;;;12.02;5.93;;;8.40;99.90;;;;;;5027267;28;20124;-76
2023/02/03 06:37:05;;;;;;;12.77;5.80;;;8.30;99.90;;;;;;5028083;28;20084;-76
2023/02/03 06:39:30;;;;;;;14.88;5.78;;;8.40;99.90;;;;;;4997783;28;20056;-77
2023/02/03 06:41:56;;;;;;;12.68;5.65;;;8.40;99.90;;;;;;5049524;28;20037;-77
2023/02/03 06:44:27;;;;;;;9.68;5.88;;;8.30;99.90;;;;;;5024229;28;20490;-77
2023/02/03 06:46:55;;;;;;;15.80;5.45;;;8.30;99.90;;;;;;5022882;28;20360;-77
2023/02/03 06:49:20;;;;;;;10.40;4.97;;;8.30;99.90;;;;;;5019262;28;20158;-77
2023/02/03 06:51:46;;;;;;;12.55;5.38;;;8.30;99.90;;;;;;5010343;28;20045;-77
2023/02/03 06:54:12;;;;;;;14.18;5.57;;;8.30;99.90;;;;;;5008547;28;20049;-76
2023/02/03 06:56:38;;;;;;;11.80;5.55;;;8.30;99.90;;;;;;5047611;28;20080;-76
2023/02/03 06:59:04;;;;;;;11.32;5.90;;;8.30;99.90;;;;;;5026665;28;20076;-77
2023/02/03 07:01:30;;;;;;;14.18;5.70;;;8.20;99.90;;;;;;5033673;28;20135;-77
2023/02/03 07:03:57;;;;;;;12.35;5.47;;;8.20;99.90;;;;;;4995099;28;20128;-77
2023/02/03 07:06:32;;;;;;;13.68;5.50;;;8.20;99.90;;;;;;5010913;28;20049;-76
2023/02/03 07:09:03;;;;;;;11.63;5.43;;;8.20;99.90;;;;;;5043419;28;20092;-76
2023/02/03 07:11:29;;;;;;;10.80;5.00;;;8.20;99.90;;;;;;5004098;28;20045;-76
2023/02/03 07:13:55;;;;;;;11.43;5.47;;;8.20;99.90;;;;;;5021821;28;20045;-76
2023/02/03 07:16:21;;;;;;;10.52;4.55;;;8.20;99.90;;;;;;5036413;28;20041;-77
2023/02/03 07:18:47;;;;;;;13.15;5.60;;;8.10;99.90;;;;;;4999980;28;20046;-78
2023/02/03 07:21:13;;;;;;;12.23;5.43;;;8.10;99.90;;;;;;5014312;28;20068;-78
2023/02/03 07:23:39;;;;;;;9.80;4.53;;;8.10;99.90;;;;;;5016067;28;20045;-76
2023/02/03 07:26:06;;;;;;;14.93;5.28;;;8.20;99.90;;;;;;4995282;28;20556;-77
2023/02/03 07:28:35;;;;;;;9.93;5.43;;;8.20;99.90;;;;;;5044029;28;20135;-76
2023/02/03 07:31:03;;;;;;;10.80;4.80;;;8.20;99.90;;;;;;5032770;28;20037;-77
2023/02/03 07:33:29;;;;;;;11.32;5.30;;;8.20;99.90;;;;;;5022734;28;20128;-77
2023/02/03 07:35:59;;;;;;;10.13;5.00;;;8.20;99.90;;;;;;5021766;28;20480;-77
2023/02/03 07:38:25;;;;;;;9.38;4.68;;;8.10;99.90;;;;;;5014803;28;20037;-76
2023/02/03 07:40:51;;;;;;;10.48;5.20;;;8.20;99.90;;;;;;5011651;28;20038;-77
2023/02/03 07:43:20;;;;;;;12.82;5.35;;;8.20;99.90;;;;;;5025554;28;20569;-78
2023/02/03 07:45:45;;;;;;;9.35;4.80;;;8.10;99.90;;;;;;5019647;28;20646;-77
2023/02/03 07:48:11;;;;;;;7.22;4.32;;;8.10;99.90;;;;;;5024866;28;20054;-76
2023/02/03 07:50:37;;;;;;;9.43;4.80;;;8.20;99.90;;;;;;5006305;28;20056;-77
2023/02/03 07:53:05;;;;;;;7.82;4.57;;;8.20;99.90;;;;;;4998603;28;20053;-77
2023/02/03 07:55:30;;;;;;;8.90;4.73;;;8.20;99.90;;;;;;5029720;28;20104;-77
2023/02/03 07:57:56;;;;;;;8.20;4.38;;;8.20;99.90;;;;;;5020556;28;20494;-77
2023/02/03 08:00:23;;;;;;;6.25;3.88;;;8.10;99.90;;;;;;5024181;28;20446;-76
2023/02/03 08:02:49;;;;;;;7.78;4.28;;;8.10;99.90;;;;;;4998206;28;20084;-76
2023/02/03 08:05:15;;;;;;;7.53;4.53;;;8.20;99.90;;;;;;5016928;28;20068;-77
2023/02/03 08:07:41;;;;;;;9.98;4.60;;;8.10;99.90;;;;;;4983041;28;20085;-76
2023/02/03 08:10:07;;;;;;;7.25;4.25;;;8.10;99.90;;;;;;5030650;28;20466;-77
2023/02/03 08:12:33;;;;;;;11.07;4.40;;;8.10;99.90;;;;;;5030889;28;20793;-76
2023/02/03 08:14:59;;;;;;;8.57;4.43;;;8.10;99.90;;;;;;5019751;28;20045;-75
2023/02/03 08:17:25;;;;;;;9.90;4.10;;;8.10;99.90;;;;;;5002339;28;20038;-73
2023/02/03 08:19:51;;;;;;;6.45;4.07;;;8.10;99.90;;;;;;5020530;28;20069;-74
2023/02/03 08:22:18;;;;;;;6.68;3.58;;;8.10;99.90;;;;;;5020875;28;20080;-72
2023/02/03 08:24:47;;;;;;;8.25;3.90;;;8.10;99.90;;;;;;5025679;28;20045;-77
2023/02/03 08:27:14;;;;;;;5.60;3.67;;;8.10;99.90;;;;;;5026479;28;20125;-77
2023/02/03 08:29:39;;;;;;;9.32;3.58;;;8.10;99.90;;;;;;5003935;28;20051;-76
2023/02/03 08:32:08;;;;;;;7.15;4.13;;;8.10;99.90;;;;;;5016331;28;20045;-76
2023/02/03 08:34:34;;;;;;;6.78;3.80;;;8.10;99.90;;;;;;5026371;28;20110;-77
2023/02/03 08:37:00;;;;;;;8.35;3.90;;;8.20;99.90;;;;;;5043131;28;20686;-76
2023/02/03 08:39:27;;;;;;;7.75;3.83;;;8.10;99.90;;;;;;5015910;28;20037;-75
2023/02/03 08:41:53;;;;;;;4.45;3.50;;;8.20;99.90;;;;;;5016561;28;20733;-77
2023/02/03 08:44:19;;;;;;;7.97;3.63;;;8.20;99.90;;;;;;5025551;28;20061;-77
2023/02/03 08:46:49;;;;;;;5.32;3.28;;;8.20;99.90;;;;;;5030266;28;20437;-76
2023/02/03 08:49:15;;;;;;;4.82;2.95;;;8.20;99.90;;;;;;5010452;28;20045;-76
2023/02/03 08:51:41;;;;;;;6.55;3.47;;;8.20;99.90;;;;;;5003456;28;20041;-77
2023/02/03 08:54:07;;;;;;;6.03;3.58;;;8.20;99.90;;;;;;4999306;28;20073;-77
2023/02/03 08:56:33;;;;;;;6.03;3.60;;;8.30;99.90;;;;;;5031420;28;20716;-77
2023/02/03 08:58:59;;;;;;;5.88;3.00;;;8.30;99.90;;;;;;5019862;28;20041;-77
2023/02/03 09:01:24;;;;;;;4.38;3.42;;;8.30;99.90;;;;;;5025973;28;20046;-77
2023/02/03 09:03:50;;;;;;;7.20;3.63;;;8.40;99.90;;;;;;5031923;28;20041;-77
2023/02/03 09:06:16;;;;;;;10.40;3.63;;;8.40;99.90;;;;;;5017328;28;20069;-77
2023/02/03 09:08:42;;;;;;;6.60;4.47;;;8.40;99.90;;;;;;5018997;28;20069;-77
2023/02/03 09:11:10;;;;;;;4.95;3.35;;;8.50;99.90;;;;;;5031096;28;20116;-77
2023/02/03 09:13:37;;;;;;;6.88;3.70;;;8.50;99.90;;;;;;5028784;28;20091;-77
2023/02/03 09:16:07;;;;;;;7.47;3.88;;;8.50;99.90;;;;;;5007771;28;20103;-77
2023/02/03 09:18:32;;;;;;;12.30;4.25;;;8.60;99.90;;;;;;5023701;28;20148;-77
2023/02/03 09:21:06;;;;;;;10.15;4.70;;;8.50;99.90;;;;;;5027718;28;20773;-77
2023/02/03 09:23:32;;;;;;;8.95;4.53;;;8.50;99.90;;;;;;5029472;28;20052;-78
2023/02/03 09:26:03;;;;;;;9.98;4.85;;;8.50;99.90;;;;;;5036603;28;20049;-77
2023/02/03 09:28:28;;;;;;;9.95;4.43;;;8.60;99.90;;;;;;5013446;28;20077;-76
2023/02/03 09:31:05;;;;;;;14.00;5.15;;;8.60;99.90;;;;;;5000988;28;20079;-77
2023/02/03 09:33:31;;;;;;;10.93;4.68;;;8.50;99.90;;;;;;5012495;28;20073;-76
2023/02/03 09:35:57;;;;;;;11.40;4.43;;;8.60;99.90;;;;;;5028209;28;20052;-77
2023/02/03 09:38:23;;;;;;;7.90;4.53;;;8.60;99.90;;;;;;5045669;28;20041;-77
2023/02/03 09:40:58;;;;;;;8.07;4.55;;;8.50;99.90;;;;;;4999845;28;20076;-77
2023/02/03 09:43:37;;;;;;;12.30;4.95;;;8.50;99.90;;;;;;5014282;28;20037;-77
2023/02/03 09:46:34;;;;;;;10.07;5.45;;;8.50;99.90;;;;;;5024789;28;20048;-76
2023/02/03 09:49:08;;;;;;;11.98;6.00;;;8.50;99.90;;;;;;5037876;28;20048;-77
2023/02/03 09:51:45;;;;;;;11.90;4.47;;;8.50;99.90;;;;;;5013301;28;20069;-76
2023/02/03 09:54:24;;;;;;;11.48;4.93;;;8.60;99.90;;;;;;5028792;28;20045;-77
2023/02/03 09:56:53;;;;;;;14.80;5.47;;;8.60;99.90;;;;;;5028977;28;20038;-76
2023/02/03 09:59:19;;;;;;;15.43;4.47;;;8.60;99.90;;;;;;4993190;28;20041;-77
2023/02/03 10:02:08;;;;;;;10.10;4.40;;;8.80;99.90;;;;;;5027828;28;20038;-77
2023/02/03 10:04:42;;;;;;;14.73;4.57;;;8.80;99.90;;;;;;5024828;28;20048;-76
2023/02/03 10:07:14;;;;;;;11.20;4.30;;;8.80;99.90;;;;;;4982081;28;20049;-74
2023/02/03 10:10:01;;;;;;;11.70;4.60;;;8.70;99.90;;;;;;5028055;28;20505;-77
2023/02/03 10:13:04;;;;;;;8.00;3.72;;;8.70;99.90;;;;;;5017750;28;20106;-77
2023/02/03 10:15:53;;;;;;;11.73;4.50;;;8.70;99.90;;;;;;5041459;28;20374;-77
2023/02/03 10:18:20;;;;;;;8.70;4.07;;;8.70;99.90;;;;;;5009244;28;20052;-77
2023/02/03 10:20:54;;;;;;;11.52;3.53;;;8.70;99.90;;;;;;5017625;28;20041;-77
2023/02/03 10:23:25;;;;;;;9.70;3.55;;;8.70;99.90;;;;;;5022326;28;20049;-77
2023/02/03 10:25:54;;;;;;;18.15;4.25;;;8.70;99.90;;;;;;4979221;28;20045;-76
2023/02/03 10:28:25;;;;;;;13.30;3.97;;;8.70;99.90;;;;;;5011894;28;20041;-77
2023/02/03 10:30:58;;;;;;;11.50;3.78;;;8.70;99.90;;;;;;5023560;28;20046;-76
2023/02/03 10:33:25;;;;;;;11.35;3.75;;;8.70;99.90;;;;;;5038058;28;20081;-77
2023/02/03 10:35:56;;;;;;;12.85;3.95;;;8.70;99.90;;;;;;5026800;28;20049;-77
2023/02/03 10:38:49;;;;;;;7.57;3.35;;;8.70;99.90;;;;;;5051007;28;20129;-78
2023/02/03 10:41:15;;;;;;;13.65;3.20;;;8.80;99.90;;;;;;5041851;28;20075;-77
2023/02/03 10:43:47;;;;;;;7.10;3.17;;;8.80;99.90;;;;;;5015416;28;20045;-78
2023/02/03 10:46:14;;;;;;;11.15;3.35;;;8.70;99.90;;;;;;5033931;28;20045;-77
2023/02/03 10:48:40;;;;;;;14.50;3.78;;;8.70;99.90;;;;;;5009128;28;20048;-77
2023/02/03 10:51:30;;;;;;;18.08;4.00;;;8.60;99.90;;;;;;5011971;28;20038;-77
2023/02/03 10:53:56;;;;;;;8.30;2.47;;;8.60;99.90;;;;;;5032723;28;20619;-76
2023/02/03 10:56:32;;;;;;;9.38;2.22;;;8.30;99.90;;;;;;5046543;28;20068;-77
2023/02/03 10:58:58;;;;;;;8.05;2.25;;;8.10;99.90;;;;;;5003187;28;20048;-77
2023/02/03 11:01:26;;;;;;;11.75;2.00;;;8.00;99.90;;;;;;4996237;28;20132;-77
2023/02/03 11:04:03;;;;;;;11.73;2.58;;;8.00;99.90;;;;;;5010047;28;20085;-77
2023/02/03 11:06:30;;;;;;;7.70;1.80;;;8.10;99.90;;;;;;5016664;28;20041;-77
2023/02/03 11:08:55;;;;;;;9.50;2.45;;;8.10;99.90;;;;;;5011091;28;20045;-79
2023/02/03 11:11:30;;;;;;;12.02;2.28;;;8.10;99.90;;;;;;5051068;28;20049;-78
2023/02/03 11:14:02;;;;;;;9.52;2.00;;;8.20;99.90;;;;;;5031238;28;20053;-77
2023/02/03 11:16:28;;;;;;;8.65;1.75;;;8.30;99.90;;;;;;5053878;28;20056;-76
2023/02/03 11:19:03;;;;;;;11.38;2.40;;;8.40;99.90;;;;;;5029338;28;20049;-77
2023/02/03 11:21:36;;;;;;;11.18;2.78;;;8.50;99.90;;;;;;5028377;28;20081;-77
2023/02/03 11:24:04;;;;;;;13.23;2.53;;;8.50;99.90;;;;;;5011547;28;20042;-77
2023/02/03 11:26:43;;;;;;;16.67;2.30;;;8.50;99.90;;;;;;5002596;28;20045;-77
2023/02/03 11:29:18;;;;;;;11.90;2.22;;;8.50;99.90;;;;;;4995725;28;20132;-77
2023/02/03 11:31:46;;;;;;;13.73;2.08;;;8.50;99.90;;;;;;5033472;28;20050;-75
2023/02/03 11:34:14;;;;;;;;;;;8.50;99.90;;;;;;5038050;28;20054;-77
2023/02/03 11:36:40;;;;;;;11.40;2.40;;;8.50;99.90;;;;;;5046391;28;19909;-77
2023/02/03 11:39:34;;;;;;;12.55;2.42;;;8.50;99.90;;;;;;5001788;28;20033;-75
2023/02/03 11:42:00;;;;;;;11.88;2.35;;;8.50;99.90;;;;;;5040115;28;20045;-76
2023/02/03 11:44:32;;;;;;;17.00;2.65;;;8.60;99.90;;;;;;5014421;28;20083;-75
2023/02/03 11:47:03;;;;;;;15.85;2.88;;;8.50;99.90;;;;;;5012656;28;20054;-76
2023/02/03 11:49:49;;;;;;;13.75;3.33;;;8.60;99.90;;;;;;5033942;28;20044;-76
2023/02/03 11:52:21;;;;;;;12.98;2.65;;;8.60;99.90;;;;;;5014452;28;20077;-76
2023/02/03 11:54:57;;;;;;;20.90;4.07;;;8.60;99.90;;;;;;5026916;28;20137;-75
2023/02/03 11:57:41;;;;;;;25.48;4.32;;;8.70;99.90;;;;;;5014679;28;20076;-75
2023/02/03 12:00:30;;;;;;;16.58;2.75;;;8.80;99.90;;;;;;5028447;28;20087;-75
2023/02/03 12:03:02;;;;;;;16.13;3.45;;;8.80;99.90;;;;;;5047638;28;20088;-74
2023/02/03 12:05:50;;;;;;;17.80;3.20;;;8.80;99.90;;;;;;5014294;28;20046;-74
2023/02/03 12:09:00;;;;;;;15.40;3.15;;;8.80;99.90;;;;;;5026125;28;20165;-74
2023/02/03 12:11:49;;;;;;;18.63;3.78;;;8.80;99.90;;;;;;5048093;28;20124;-74
2023/02/03 12:14:37;;;;;;;24.30;3.78;;;8.80;99.90;;;;;;5005588;28;20058;-74
2023/02/03 12:17:47;;;;;;;13.38;3.08;;;8.80;99.90;;;;;;5025790;28;20041;-74
2023/02/03 12:20:22;;;;;;;16.75;4.63;;;8.80;99.90;;;;;;4978985;28;20043;-74
2023/02/03 12:23:19;;;;;;;21.63;4.47;;;8.80;99.90;;;;;;5005994;28;20049;-75
2023/02/03 12:26:18;;;;;;;19.15;4.22;;;8.90;99.90;;;;;;5020330;28;20046;-74
2023/02/03 12:28:59;;;;;;;19.90;3.30;;;8.80;99.90;;;;;;5022478;28;20083;-75
2023/02/03 12:31:45;;;;;;;16.77;3.67;;;8.80;99.90;;;;;;5040442;28;20049;-73
2023/02/03 12:34:28;;;;;;;15.90;3.05;;;8.80;99.90;;;;;;5038101;28;20045;-73
2023/02/03 12:37:02;;;;;;;29.80;3.90;;;8.80;99.90;;;;;;5029226;28;20052;-74
2023/02/03 12:39:40;;;;;;;24.50;4.53;;;8.80;99.90;;;;;;5013221;28;20071;-74
2023/02/03 12:42:26;;;;;;;19.98;3.35;;;8.80;99.90;;;;;;5041135;28;20127;-72
2023/02/03 12:45:10;;;;;;;18.52;3.58;;;8.90;99.90;;;;;;5027383;28;20976;-74
2023/02/03 12:47:40;;;;;;;25.02;4.53;;;8.90;99.90;;;;;;5010256;28;20046;-75
2023/02/03 12:50:26;;;;;;;24.45;3.78;;;9.00;99.90;;;;;;5051566;28;20136;-74
2023/02/03 12:53:04;;;;;;;20.13;4.30;;;9.10;99.90;;;;;;5024211;28;20063;-75
2023/02/03 12:55:59;;;;;;;20.58;3.55;;;9.10;99.90;;;;;;5030035;28;20042;-75
2023/02/03 12:59:01;;;;;;;17.23;3.63;;;9.10;99.90;;;;;;5007339;28;20055;-73
2023/02/03 13:01:39;;;;;;;20.45;4.38;;;9.20;99.90;;;;;;5015164;28;20049;-73
2023/02/03 13:04:16;;;;;;;21.95;3.90;;;9.10;99.90;;;;;;5007091;28;20072;-74
2023/02/03 13:06:47;;;;;;;14.75;3.65;;;9.10;99.90;;;;;;5004525;28;20386;-74